Time;durP1;ratioP1;P1;durP2;ratioP2;P2;SDS_P1;SDS_P2;PMS_P1;PMS_P2;Temp;Humidity;BMP_temperature;BMP_pressure;BME280_temperature;BME280_humidity;BME280_pressure;Samples;Min_cycle;Max_cycle;Signal;HPM_P1;HPM_P2
2022/05/28 00:01:02;;;;;;;3.57;2.57;;;15.90;99.90;;;;;;5003998;28;20938;-71
2022/05/28 00:03:29;;;;;;;3.67;3.00;;;16.10;99.90;;;;;;5007294;28;20763;-72
2022/05/28 00:05:55;;;;;;;6.23;3.50;;;16.10;99.90;;;;;;5007249;28;20421;-72
2022/05/28 00:08:21;;;;;;;4.73;4.17;;;16.10;99.90;;;;;;5007452;28;20453;-72
2022/05/28 00:10:47;;;;;;;8.53;3.83;;;16.10;99.90;;;;;;5007312;28;20465;-72
2022/05/28 00:13:13;;;;;;;7.77;3.70;;;16.10;99.90;;;;;;5006923;28;20866;-74
2022/05/28 00:15:41;;;;;;;7.57;3.70;;;16.20;99.90;;;;;;5005756;28;20257;-72
2022/05/28 00:18:07;;;;;;;5.83;3.60;;;16.30;99.90;;;;;;5006974;28;20497;-72
2022/05/28 00:20:33;;;;;;;7.00;4.10;;;16.20;99.90;;;;;;5007246;28;20786;-71
2022/05/28 00:22:59;;;;;;;4.33;3.93;;;16.10;99.90;;;;;;5007203;28;20420;-72
2022/05/28 00:25:25;;;;;;;5.40;3.90;;;16.10;99.90;;;;;;5006913;28;20215;-74
2022/05/28 00:27:50;;;;;;;4.27;3.70;;;16.00;99.90;;;;;;5006660;28;20233;-72
2022/05/28 00:30:16;;;;;;;4.87;4.10;;;16.10;99.90;;;;;;5006796;28;20192;-74
2022/05/28 00:32:42;;;;;;;7.27;4.20;;;16.20;99.90;;;;;;5007179;28;20610;-72
2022/05/28 00:35:12;;;;;;;8.70;4.60;;;16.40;99.90;;;;;;5006721;28;20504;-71
2022/05/28 00:37:38;;;;;;;7.97;4.33;;;16.40;99.90;;;;;;5006535;28;20453;-71
2022/05/28 00:40:07;;;;;;;10.90;4.27;;;16.40;99.90;;;;;;5007080;28;20484;-71
2022/05/28 00:42:33;;;;;;;6.47;4.33;;;16.20;99.90;;;;;;5006381;28;20179;-75
2022/05/28 00:44:59;;;;;;;6.10;4.33;;;15.80;99.90;;;;;;5006144;28;20412;-71
2022/05/28 00:47:25;;;;;;;6.53;4.27;;;15.40;99.90;;;;;;5006691;28;20590;-72
2022/05/28 00:49:52;;;;;;;7.77;4.07;;;15.40;99.90;;;;;;5006374;28;20195;-72
2022/05/28 00:52:20;;;;;;;5.10;3.90;;;15.40;99.90;;;;;;5006377;28;20190;-71
2022/05/28 00:54:48;;;;;;;7.57;4.10;;;15.70;99.90;;;;;;5006393;28;20502;-72
2022/05/28 00:57:16;;;;;;;6.27;3.57;;;15.70;99.90;;;;;;5006237;28;20450;-72
2022/05/28 00:59:43;;;;;;;6.50;4.40;;;15.90;99.90;;;;;;5005675;28;20448;-71
2022/05/28 01:02:23;;;;;;;5.30;4.50;;;15.90;99.90;;;;;;5006212;28;20424;-71
2022/05/28 01:05:06;;;;;;;7.80;4.90;;;16.00;99.90;;;;;;5006001;28;20883;-72
2022/05/28 01:07:43;;;;;;;9.70;4.63;;;15.70;99.90;;;;;;5006027;28;20584;-72
2022/05/28 01:10:48;;;;;;;9.37;4.73;;;15.70;99.90;;;;;;5005949;28;20408;-72
2022/05/28 01:13:42;;;;;;;5.50;4.60;;;15.50;99.90;;;;;;5004538;28;20436;-72
2022/05/28 01:16:14;;;;;;;7.40;4.33;;;15.60;99.90;;;;;;5006268;28;20623;-71
2022/05/28 01:18:48;;;;;;;5.00;4.43;;;15.30;99.90;;;;;;5006051;28;20462;-71
2022/05/28 01:21:27;;;;;;;6.77;5.47;;;15.40;99.90;;;;;;5004648;28;20957;-71
2022/05/28 01:24:12;;;;;;;7.03;4.60;;;15.40;99.90;;;;;;5005899;28;20453;-71
2022/05/28 01:27:03;;;;;;;7.57;4.93;;;15.10;99.90;;;;;;5005825;28;20474;-72
2022/05/28 01:29:36;;;;;;;9.53;5.30;;;14.80;99.90;;;;;;5005556;28;20481;-74
2022/05/28 01:32:04;;;;;;;6.67;4.30;;;15.00;99.90;;;;;;5006150;28;20413;-73
2022/05/28 01:34:31;;;;;;;7.40;4.90;;;15.00;99.90;;;;;;5005996;28;20426;-72
2022/05/28 01:36:58;;;;;;;6.03;3.93;;;15.10;99.90;;;;;;5005915;28;20559;-73
2022/05/28 01:39:25;;;;;;;5.60;3.47;;;15.00;99.90;;;;;;5004250;28;20459;-73
2022/05/28 01:41:52;;;;;;;7.60;4.80;;;14.80;99.90;;;;;;5005265;28;20967;-71
2022/05/28 01:44:18;;;;;;;6.37;3.97;;;14.80;99.90;;;;;;5005451;28;20492;-73
2022/05/28 01:46:46;;;;;;;8.10;4.00;;;14.90;99.90;;;;;;5005424;28;20901;-71
2022/05/28 01:49:15;;;;;;;6.50;3.70;;;14.70;99.90;;;;;;5005565;28;20430;-71
2022/05/28 01:51:47;;;;;;;5.40;3.70;;;14.70;99.90;;;;;;5004412;28;20519;-75
2022/05/28 01:54:16;;;;;;;10.70;4.17;;;14.70;99.90;;;;;;5005084;28;20488;-73
2022/05/28 01:56:45;;;;;;;9.37;5.60;;;14.80;99.90;;;;;;5004668;28;20441;-71
2022/05/28 01:59:13;;;;;;;8.50;4.20;;;14.70;99.90;;;;;;5004675;28;20542;-74
2022/05/28 02:01:40;;;;;;;9.47;4.60;;;14.70;99.90;;;;;;5005800;28;20427;-72
2022/05/28 02:04:06;;;;;;;8.60;3.17;;;14.80;99.90;;;;;;5004143;28;20419;-73
2022/05/28 02:06:34;;;;;;;4.43;3.17;;;14.70;99.90;;;;;;5005199;28;20831;-73
2022/05/28 02:09:00;;;;;;;7.93;3.43;;;14.60;99.90;;;;;;5005408;28;20442;-73
2022/05/28 02:11:42;;;;;;;7.37;3.20;;;14.70;99.90;;;;;;5005527;28;21036;-73
2022/05/28 02:14:23;;;;;;;7.07;3.70;;;14.80;99.90;;;;;;5005260;28;20913;-72
2022/05/28 02:17:10;;;;;;;6.10;3.70;;;14.80;99.90;;;;;;5004997;28;20422;-74
2022/05/28 02:19:55;;;;;;;7.30;3.50;;;14.70;99.90;;;;;;5005018;28;20426;-74
2022/05/28 02:23:05;;;;;;;8.53;3.27;;;14.50;99.90;;;;;;5004701;28;20510;-74
2022/05/28 02:25:45;;;;;;;5.57;3.00;;;14.50;99.90;;;;;;4924334;29;20423;-72
2022/05/28 02:28:13;;;;;;;8.37;3.30;;;14.30;99.90;;;;;;4924844;29;20903;-73
2022/05/28 02:31:02;;;;;;;7.33;3.53;;;14.30;99.90;;;;;;4973559;28;20440;-71
2022/05/28 02:33:31;;;;;;;8.80;3.70;;;14.20;99.90;;;;;;5004588;28;20501;-72
2022/05/28 02:35:57;;;;;;;6.77;3.63;;;14.10;99.90;;;;;;5004456;28;20435;-75
2022/05/28 02:38:23;;;;;;;7.83;3.20;;;14.00;99.90;;;;;;5004414;28;20466;-75
2022/05/28 02:40:48;;;;;;;9.17;3.23;;;13.90;99.90;;;;;;5004490;28;20184;-72
2022/05/28 02:43:14;;;;;;;8.93;4.00;;;13.80;99.90;;;;;;5004028;28;20174;-71
2022/05/28 02:45:40;;;;;;;8.93;2.57;;;13.70;99.90;;;;;;5004180;28;20227;-71
2022/05/28 02:48:07;;;;;;;8.40;3.10;;;13.90;99.90;;;;;;5004650;28;20205;-73
2022/05/28 02:50:33;;;;;;;4.90;3.30;;;13.90;99.90;;;;;;5005321;28;20420;-72
2022/05/28 02:52:59;;;;;;;5.10;3.07;;;14.00;99.90;;;;;;5005552;28;20428;-72
2022/05/28 02:55:25;;;;;;;8.00;3.30;;;13.70;99.90;;;;;;5005681;28;20881;-74
2022/05/28 02:57:50;;;;;;;7.70;3.73;;;13.90;99.90;;;;;;5004922;28;20285;-73
2022/05/28 03:00:17;;;;;;;6.33;3.00;;;13.80;99.90;;;;;;5004362;28;20429;-71
2022/05/28 03:02:44;;;;;;;10.13;3.37;;;13.90;99.90;;;;;;5004322;28;20196;-72
2022/05/28 03:05:12;;;;;;;7.33;3.00;;;13.70;99.90;;;;;;5004112;28;20836;-72
2022/05/28 03:07:38;;;;;;;9.40;3.27;;;13.70;99.90;;;;;;5003922;28;21103;-71
2022/05/28 03:10:04;;;;;;;5.20;3.17;;;13.50;99.90;;;;;;5002834;28;20475;-72
2022/05/28 03:12:29;;;;;;;7.47;3.10;;;13.50;99.90;;;;;;5003695;28;20589;-71
2022/05/28 03:14:55;;;;;;;6.43;3.00;;;13.50;99.90;;;;;;5004181;28;20789;-72
2022/05/28 03:17:20;;;;;;;7.70;3.10;;;13.70;99.90;;;;;;5003944;28;20199;-71
2022/05/28 03:19:46;;;;;;;6.00;3.13;;;13.60;99.90;;;;;;5004153;28;20230;-72
2022/05/28 03:22:12;;;;;;;7.90;3.10;;;13.60;99.90;;;;;;5004260;28;20172;-74
2022/05/28 03:24:37;;;;;;;10.23;3.23;;;13.60;99.90;;;;;;5004096;28;20328;-71
2022/05/28 03:27:03;;;;;;;7.60;2.60;;;13.50;99.90;;;;;;5003718;28;20265;-72
2022/05/28 03:29:28;;;;;;;6.43;2.80;;;13.30;99.90;;;;;;5003795;28;20211;-72
2022/05/28 03:31:55;;;;;;;11.90;3.10;;;13.40;99.90;;;;;;5003733;28;20661;-71
2022/05/28 03:34:21;;;;;;;12.07;3.40;;;13.50;99.90;;;;;;5003579;28;20181;-71
2022/05/28 03:36:47;;;;;;;12.20;3.07;;;13.30;99.90;;;;;;5004742;28;20433;-72
2022/05/28 03:39:12;;;;;;;4.37;2.47;;;13.20;99.90;;;;;;5007582;28;20695;-72
2022/05/28 03:41:38;;;;;;;5.13;3.07;;;13.20;99.90;;;;;;5008001;28;20419;-72
2022/05/28 03:44:04;;;;;;;8.50;2.60;;;13.30;99.90;;;;;;5007208;28;20218;-72
2022/05/28 03:46:33;;;;;;;6.33;2.93;;;13.30;99.90;;;;;;5007839;28;20177;-73
2022/05/28 03:49:05;;;;;;;6.50;2.90;;;13.20;99.90;;;;;;5007631;28;20693;-72
2022/05/28 03:51:31;;;;;;;5.40;2.97;;;13.30;99.90;;;;;;5007902;28;21329;-72
2022/05/28 03:53:57;;;;;;;6.03;2.97;;;13.30;99.90;;;;;;5007887;28;20419;-72
2022/05/28 03:56:27;;;;;;;4.80;2.63;;;13.50;99.90;;;;;;5007401;28;20196;-71
2022/05/28 03:58:53;;;;;;;7.27;2.57;;;13.60;99.90;;;;;;5005532;28;20315;-71
2022/05/28 04:01:18;;;;;;;9.07;2.70;;;13.50;99.90;;;;;;5007533;28;20491;-75
2022/05/28 04:03:44;;;;;;;7.63;2.87;;;13.50;99.90;;;;;;5006898;28;20604;-71
2022/05/28 04:06:10;;;;;;;6.10;2.70;;;13.50;99.90;;;;;;5007845;28;20237;-73
2022/05/28 04:08:36;;;;;;;6.90;2.80;;;13.50;99.90;;;;;;5007114;28;20574;-71
2022/05/28 04:11:02;;;;;;;4.50;2.50;;;13.60;99.90;;;;;;5007709;28;20426;-71
2022/05/28 04:13:27;;;;;;;6.50;2.50;;;13.80;99.90;;;;;;5007039;28;20222;-73
2022/05/28 04:15:53;;;;;;;8.70;3.10;;;13.80;99.90;;;;;;5006792;28;20177;-72
2022/05/28 04:18:19;;;;;;;8.37;2.40;;;13.70;99.90;;;;;;5006828;28;20631;-72
2022/05/28 04:20:44;;;;;;;10.70;2.90;;;13.40;99.90;;;;;;5007046;28;20269;-72
2022/05/28 04:23:10;;;;;;;7.40;2.50;;;13.50;99.90;;;;;;5007061;28;20655;-73
2022/05/28 04:25:35;;;;;;;9.60;3.03;;;13.40;99.90;;;;;;5006870;28;20237;-73
2022/05/28 04:28:01;;;;;;;6.83;2.93;;;12.90;99.90;;;;;;5006800;28;20677;-71
2022/05/28 04:30:27;;;;;;;8.07;3.30;;;12.90;99.90;;;;;;5006523;28;20217;-72
2022/05/28 04:32:52;;;;;;;10.53;3.23;;;12.90;99.90;;;;;;5006944;28;20214;-72
2022/05/28 04:35:18;;;;;;;8.93;3.43;;;13.00;99.90;;;;;;5005216;28;20195;-71
2022/05/28 04:37:43;;;;;;;5.73;2.67;;;13.10;99.90;;;;;;5006827;28;20200;-70
2022/05/28 04:40:11;;;;;;;5.40;2.83;;;13.20;99.90;;;;;;5006822;28;20200;-74
2022/05/28 04:42:36;;;;;;;7.90;2.80;;;13.30;99.90;;;;;;5006771;28;20264;-73
2022/05/28 04:45:03;;;;;;;9.43;2.40;;;13.40;99.90;;;;;;5005346;28;21022;-72
2022/05/28 04:47:29;;;;;;;5.97;2.63;;;13.50;99.90;;;;;;5004073;28;20207;-71
2022/05/28 04:49:55;;;;;;;9.40;2.93;;;13.10;99.90;;;;;;5006387;28;20430;-72
2022/05/28 04:52:21;;;;;;;7.90;3.43;;;13.00;99.90;;;;;;5006478;28;20183;-75
2022/05/28 04:54:47;;;;;;;5.20;2.43;;;13.20;99.90;;;;;;5006934;28;20192;-72
2022/05/28 04:57:13;;;;;;;9.53;2.90;;;13.30;99.90;;;;;;5006070;28;20466;-70
2022/05/28 04:59:38;;;;;;;5.20;2.60;;;13.20;99.90;;;;;;5005785;28;21399;-72
2022/05/28 05:02:06;;;;;;;7.03;2.57;;;13.20;99.90;;;;;;5006460;28;20179;-71
2022/05/28 05:04:31;;;;;;;5.30;2.47;;;13.20;99.90;;;;;;5006704;28;20190;-71
2022/05/28 05:06:57;;;;;;;6.57;2.60;;;13.40;99.90;;;;;;5006375;28;20403;-72
2022/05/28 05:09:22;;;;;;;8.67;2.70;;;13.30;99.90;;;;;;5005994;28;20653;-72
2022/05/28 05:11:48;;;;;;;6.73;3.00;;;13.20;99.90;;;;;;5006239;28;20171;-72
2022/05/28 05:14:13;;;;;;;6.30;2.90;;;13.20;99.90;;;;;;5005320;28;20180;-71
2022/05/28 05:16:39;;;;;;;7.77;3.23;;;13.20;99.90;;;;;;5005989;28;20696;-71
2022/05/28 05:19:05;;;;;;;8.27;2.73;;;13.20;99.90;;;;;;5006012;28;20712;-72
2022/05/28 05:21:30;;;;;;;4.90;3.10;;;13.30;99.90;;;;;;5005533;28;20176;-74
2022/05/28 05:23:56;;;;;;;6.73;2.90;;;13.30;99.90;;;;;;5004669;28;20229;-71
2022/05/28 05:26:22;;;;;;;10.20;3.57;;;13.50;99.90;;;;;;5005621;28;20260;-71
2022/05/28 05:28:48;;;;;;;4.67;2.20;;;13.50;99.90;;;;;;5005580;28;20204;-72
2022/05/28 05:31:14;;;;;;;6.43;3.17;;;13.50;99.90;;;;;;5005471;28;20593;-71
2022/05/28 05:33:40;;;;;;;8.60;3.10;;;13.30;99.90;;;;;;5005982;28;20411;-72
2022/05/28 05:36:07;;;;;;;5.97;3.20;;;13.30;99.90;;;;;;5005548;28;20172;-72
2022/05/28 05:38:32;;;;;;;8.40;3.13;;;13.10;99.90;;;;;;5005457;28;20463;-75
2022/05/28 05:40:58;;;;;;;6.10;3.00;;;12.90;99.90;;;;;;5005647;28;20937;-72
2022/05/28 05:43:23;;;;;;;7.90;2.83;;;13.10;99.90;;;;;;5005530;28;20281;-72
2022/05/28 05:45:53;;;;;;;8.03;3.47;;;13.40;99.90;;;;;;5005290;28;20187;-73
2022/05/28 05:48:19;;;;;;;9.07;3.63;;;13.30;99.90;;;;;;5005149;28;20235;-71
2022/05/28 05:50:45;;;;;;;10.20;3.33;;;13.30;99.90;;;;;;5005058;28;20419;-73
2022/05/28 05:53:11;;;;;;;6.30;2.90;;;13.40;99.90;;;;;;5005252;28;20478;-72
2022/05/28 05:55:37;;;;;;;7.23;2.73;;;13.30;99.90;;;;;;5004851;28;20843;-72
2022/05/28 05:58:04;;;;;;;7.77;3.40;;;13.60;99.90;;;;;;5004890;28;20956;-72
2022/05/28 06:00:29;;;;;;;7.60;2.60;;;13.90;99.90;;;;;;5003914;28;20201;-71
2022/05/28 06:02:55;;;;;;;4.27;2.33;;;14.00;99.90;;;;;;5005173;28;20453;-74
2022/05/28 06:05:20;;;;;;;7.33;2.93;;;13.80;99.90;;;;;;5005198;28;20178;-72
2022/05/28 06:07:46;;;;;;;6.67;2.20;;;13.70;99.90;;;;;;5005089;28;20176;-72
2022/05/28 06:10:12;;;;;;;5.37;2.47;;;13.90;99.90;;;;;;5005322;28;20262;-72
2022/05/28 06:12:38;;;;;;;7.90;2.40;;;13.80;99.90;;;;;;5004635;28;20212;-72
2022/05/28 06:15:04;;;;;;;6.40;2.90;;;13.70;99.90;;;;;;5005329;28;20519;-73
2022/05/28 06:17:30;;;;;;;5.93;2.40;;;13.70;99.90;;;;;;5005103;28;20226;-74
2022/05/28 06:19:56;;;;;;;7.40;2.60;;;13.70;99.90;;;;;;5005042;28;20988;-73
2022/05/28 06:22:21;;;;;;;7.27;2.77;;;13.70;99.90;;;;;;5004850;28;20262;-71
2022/05/28 06:24:47;;;;;;;6.83;2.80;;;13.70;99.90;;;;;;5005221;28;20252;-72
2022/05/28 06:27:12;;;;;;;6.13;2.03;;;13.70;99.90;;;;;;5004742;28;20187;-73
2022/05/28 06:29:38;;;;;;;6.03;2.20;;;13.80;99.90;;;;;;5004191;28;20201;-75
2022/05/28 06:32:04;;;;;;;4.20;2.30;;;13.90;99.90;;;;;;5005188;28;20772;-72
2022/05/28 06:34:30;;;;;;;8.23;2.00;;;13.80;99.90;;;;;;5004817;28;20292;-72
2022/05/28 06:36:55;;;;;;;5.90;2.50;;;13.70;99.90;;;;;;5004648;28;21261;-71
2022/05/28 06:39:22;;;;;;;4.30;2.00;;;13.70;99.90;;;;;;5004232;28;20213;-75
2022/05/28 06:41:47;;;;;;;6.77;1.70;;;13.60;99.90;;;;;;5004771;28;20177;-73
2022/05/28 06:44:13;;;;;;;4.07;1.63;;;13.80;99.90;;;;;;5004007;28;20410;-71
2022/05/28 06:46:38;;;;;;;5.60;2.13;;;13.90;99.90;;;;;;5004595;28;20168;-72
2022/05/28 06:49:04;;;;;;;6.73;1.50;;;14.00;99.80;;;;;;5004235;28;20216;-72
2022/05/28 06:51:31;;;;;;;3.30;1.90;;;14.00;99.90;;;;;;5004609;28;20181;-72
2022/05/28 06:53:57;;;;;;;4.33;1.77;;;13.80;99.90;;;;;;5004422;28;20185;-72
2022/05/28 06:56:22;;;;;;;4.43;1.90;;;13.90;99.90;;;;;;5004510;28;20848;-74
2022/05/28 06:58:48;;;;;;;5.27;1.97;;;14.00;99.90;;;;;;5003974;28;20277;-72
2022/05/28 07:01:16;;;;;;;5.77;2.20;;;14.20;99.90;;;;;;5003949;28;20179;-71
2022/05/28 07:03:45;;;;;;;4.60;1.80;;;14.40;99.90;;;;;;5004741;28;20186;-72
2022/05/28 07:06:11;;;;;;;5.30;2.07;;;14.40;99.90;;;;;;5004425;28;20455;-71
2022/05/28 07:08:37;;;;;;;3.97;1.70;;;14.60;99.90;;;;;;5004110;28;20773;-71
2022/05/28 07:11:05;;;;;;;8.50;2.37;;;14.60;99.90;;;;;;5003815;28;20425;-72
2022/05/28 07:13:32;;;;;;;5.00;2.27;;;14.50;99.80;;;;;;5004139;28;20199;-71
2022/05/28 07:15:57;;;;;;;6.10;2.00;;;14.60;99.10;;;;;;5002508;28;20452;-72
2022/05/28 07:18:24;;;;;;;4.37;1.73;;;14.60;99.10;;;;;;5004064;28;21388;-72
2022/05/28 07:20:50;;;;;;;4.37;1.80;;;14.60;99.00;;;;;;5003223;28;20449;-72
2022/05/28 07:23:20;;;;;;;5.50;2.10;;;14.70;98.90;;;;;;5004193;28;20817;-74
2022/05/28 07:25:46;;;;;;;5.13;1.87;;;14.60;98.20;;;;;;5002933;28;20175;-74
2022/05/28 07:28:25;;;;;;;7.17;1.70;;;14.60;98.60;;;;;;5003802;28;20971;-74
2022/05/28 07:30:56;;;;;;;6.63;1.90;;;14.40;99.00;;;;;;5003962;28;20408;-73
2022/05/28 07:33:24;;;;;;;7.33;2.60;;;14.50;99.20;;;;;;5004239;28;20410;-72
2022/05/28 07:35:52;;;;;;;5.53;1.87;;;14.50;99.20;;;;;;5004201;28;20420;-72
2022/05/28 07:38:17;;;;;;;5.43;1.80;;;14.70;99.00;;;;;;5003719;28;20473;-72
2022/05/28 07:40:43;;;;;;;8.83;2.10;;;14.70;98.60;;;;;;5004011;28;20440;-74
2022/05/28 07:43:10;;;;;;;2.87;1.33;;;14.60;98.00;;;;;;5002222;28;20194;-71
2022/05/28 07:45:39;;;;;;;5.87;1.93;;;14.50;98.10;;;;;;5003756;28;20195;-75
2022/05/28 07:48:05;;;;;;;6.10;1.77;;;14.70;98.10;;;;;;5003943;28;20499;-71
2022/05/28 07:50:30;;;;;;;4.63;2.17;;;14.80;98.00;;;;;;5003952;28;20429;-70
2022/05/28 07:52:57;;;;;;;4.77;1.80;;;15.10;98.00;;;;;;5003458;28;21315;-72
2022/05/28 07:55:23;;;;;;;5.70;1.60;;;15.10;97.80;;;;;;5003743;28;20183;-72
2022/05/28 07:57:49;;;;;;;3.93;1.40;;;15.30;96.80;;;;;;5003126;28;20477;-72
2022/05/28 08:00:15;;;;;;;3.07;1.90;;;15.30;96.70;;;;;;5003186;28;20425;-72
2022/05/28 08:02:41;;;;;;;5.17;1.70;;;15.30;96.40;;;;;;5003655;28;20180;-72
2022/05/28 08:05:07;;;;;;;5.90;1.40;;;15.30;96.40;;;;;;5003917;28;21612;-73
2022/05/28 08:07:32;;;;;;;3.87;1.50;;;15.40;96.10;;;;;;5003779;28;20185;-72
2022/05/28 08:09:58;;;;;;;3.47;1.33;;;15.60;95.80;;;;;;5003908;28;20446;-73
2022/05/28 08:12:24;;;;;;;2.67;1.27;;;15.70;95.10;;;;;;5003781;28;20265;-74
2022/05/28 08:14:50;;;;;;;3.90;1.87;;;16.00;95.10;;;;;;5002761;28;20273;-75
2022/05/28 08:17:17;;;;;;;1.93;1.13;;;16.10;94.80;;;;;;5003772;28;20287;-78
2022/05/28 08:19:42;;;;;;;2.00;1.03;;;15.90;94.00;;;;;;5003472;28;20436;-76
2022/05/28 08:24:52;;;;;;;3.70;1.60;;;15.70;94.40;;;;;;5006770;28;20174;-73
2022/05/28 08:27:18;;;;;;;3.10;1.63;;;15.90;95.50;;;;;;5005817;28;20436;-72
2022/05/28 08:29:44;;;;;;;3.60;1.40;;;15.90;94.10;;;;;;5006589;28;20214;-72
2022/05/28 08:32:09;;;;;;;5.20;1.30;;;15.90;95.00;;;;;;5006939;28;20189;-73
2022/05/28 08:34:35;;;;;;;3.37;1.57;;;15.90;95.10;;;;;;5007231;28;20429;-74
2022/05/28 08:37:01;;;;;;;4.13;1.60;;;15.90;94.90;;;;;;5006513;28;20182;-79
2022/05/28 08:39:26;;;;;;;7.07;1.70;;;16.10;95.10;;;;;;5006847;28;20216;-72
2022/05/28 08:41:59;;;;;;;2.20;1.30;;;16.20;95.20;;;;;;5006553;28;20204;-73
2022/05/28 08:44:39;;;;;;;6.23;1.83;;;16.30;95.20;;;;;;5006283;28;20718;-74
2022/05/28 08:47:24;;;;;;;8.00;2.00;;;16.30;95.10;;;;;;5007072;28;20405;-73
2022/05/28 08:49:51;;;;;;;3.77;2.00;;;16.50;95.00;;;;;;5006489;28;21084;-73
2022/05/28 08:52:23;;;;;;;5.23;1.80;;;16.60;94.80;;;;;;5006496;28;20422;-76
2022/05/28 08:55:11;;;;;;;3.70;1.60;;;16.60;94.30;;;;;;5005327;28;20935;-80
2022/05/28 08:57:57;;;;;;;4.33;1.50;;;16.60;94.70;;;;;;5006463;28;20451;-74
2022/05/28 09:00:45;;;;;;;3.03;1.83;;;16.60;94.70;;;;;;5006190;28;20401;-74
2022/05/28 09:03:15;;;;;;;3.90;1.57;;;16.60;94.50;;;;;;5006419;28;20421;-76
2022/05/28 09:06:07;;;;;;;3.50;1.27;;;16.30;94.60;;;;;;5006195;28;20420;-74
2022/05/28 09:08:43;;;;;;;3.30;1.60;;;16.60;94.70;;;;;;5006579;28;20532;-75
2022/05/28 09:11:17;;;;;;;4.93;1.77;;;16.80;94.30;;;;;;5006617;28;20416;-73
2022/05/28 09:13:49;;;;;;;5.60;1.83;;;16.60;95.10;;;;;;5005876;28;20416;-74
2022/05/28 09:16:24;;;;;;;3.63;1.50;;;16.70;95.00;;;;;;5006093;28;20458;-78
2022/05/28 09:18:52;;;;;;;3.57;1.83;;;16.80;94.10;;;;;;5005957;28;20472;-74
2022/05/28 09:21:18;;;;;;;5.33;1.73;;;16.70;94.40;;;;;;5006019;28;20431;-74
2022/05/28 09:23:48;;;;;;;4.33;1.60;;;16.80;94.10;;;;;;5004726;28;20427;-74
2022/05/28 09:26:18;;;;;;;4.70;2.07;;;17.00;94.20;;;;;;5006714;28;20424;-74
2022/05/28 09:28:55;;;;;;;4.53;1.33;;;17.30;94.40;;;;;;5005941;28;20855;-73
2022/05/28 09:31:41;;;;;;;3.17;1.60;;;17.40;93.70;;;;;;5005744;28;20414;-73
2022/05/28 09:34:15;;;;;;;3.37;1.50;;;17.30;92.60;;;;;;5005593;28;20418;-75
2022/05/28 09:36:57;;;;;;;3.47;1.60;;;17.20;93.00;;;;;;5005982;28;20442;-75
2022/05/28 09:39:29;;;;;;;6.00;2.07;;;17.40;93.40;;;;;;5005700;28;20542;-73
2022/05/28 09:42:20;;;;;;;6.00;1.53;;;17.60;92.80;;;;;;5005597;28;20399;-74
2022/05/28 09:44:59;;;;;;;6.07;2.10;;;17.30;93.20;;;;;;5005692;28;20411;-74
2022/05/28 09:47:25;;;;;;;6.73;2.07;;;17.20;93.40;;;;;;5006478;28;20773;-76
2022/05/28 09:49:56;;;;;;;3.73;1.77;;;17.30;92.90;;;;;;5005625;28;20426;-75
2022/05/28 09:54:16;;;;;;;4.20;1.60;;;17.40;92.10;;;;;;5005411;28;20690;-74
2022/05/28 09:55:19;;;;;;;6.93;1.90;;;17.40;92.20;;;;;;5004712;28;20513;-78
2022/05/28 09:58:00;;;;;;;4.50;1.57;;;17.70;92.40;;;;;;5005619;28;20454;-75
2022/05/28 10:00:26;;;;;;;4.60;1.70;;;17.70;91.90;;;;;;5004932;28;20410;-71
2022/05/28 10:05:54;;;;;;;4.27;2.17;;;17.50;91.90;;;;;;5005106;28;20410;-74
2022/05/28 10:08:19;;;;;;;6.30;1.73;;;17.60;92.60;;;;;;5005094;28;20434;-74
2022/05/28 10:10:59;;;;;;;3.03;1.20;;;17.50;92.00;;;;;;5003904;28;20446;-78
2022/05/28 10:13:25;;;;;;;3.67;1.50;;;17.90;92.30;;;;;;5003417;28;20862;-76
2022/05/28 10:15:52;;;;;;;3.80;1.33;;;18.00;91.20;;;;;;5004867;28;20506;-74
2022/05/28 10:18:22;;;;;;;2.80;1.20;;;18.30;91.60;;;;;;5004460;28;20298;-73
2022/05/28 10:21:19;;;;;;;2.50;1.40;;;18.00;89.20;;;;;;5004666;28;20502;-74
2022/05/28 10:23:51;;;;;;;5.47;1.60;;;18.10;89.00;;;;;;4988414;28;20435;-73
2022/05/28 10:26:29;;;;;;;2.77;1.30;;;18.30;89.50;;;;;;5004886;28;20894;-77
2022/05/28 10:29:00;;;;;;;1.93;1.37;;;18.10;90.10;;;;;;5005485;28;20435;-77
2022/05/28 10:31:36;;;;;;;2.97;1.30;;;18.00;90.90;;;;;;5004745;28;20418;-74
2022/05/28 10:34:02;;;;;;;5.60;1.70;;;17.90;90.90;;;;;;5004853;28;20423;-75
2022/05/28 10:36:31;;;;;;;6.97;1.83;;;18.20;90.30;;;;;;5004817;28;20429;-72
2022/05/28 10:39:14;;;;;;;4.30;1.50;;;18.10;90.40;;;;;;5004478;28;20509;-74
2022/05/28 10:41:42;;;;;;;3.73;1.60;;;17.60;91.50;;;;;;5004846;28;20410;-73
2022/05/28 10:44:09;;;;;;;5.43;1.80;;;17.30;91.40;;;;;;5004876;28;20472;-73
2022/05/28 10:47:07;;;;;;;3.23;1.43;;;17.50;92.10;;;;;;5003477;28;20470;-73
2022/05/28 10:49:47;;;;;;;6.57;1.70;;;17.60;91.30;;;;;;5004012;28;20982;-73
2022/05/28 10:52:33;;;;;;;2.03;1.00;;;17.30;91.30;;;;;;5004362;28;20445;-74
2022/05/28 10:55:05;;;;;;;5.50;1.83;;;17.30;91.60;;;;;;5004678;28;20927;-72
2022/05/28 10:57:52;;;;;;;3.77;1.50;;;17.10;92.00;;;;;;5004272;28;20458;-74
2022/05/28 11:00:21;;;;;;;4.80;1.40;;;17.50;92.10;;;;;;5003898;28;20751;-76
2022/05/28 11:03:25;;;;;;;1.90;1.10;;;17.50;90.00;;;;;;5004705;28;20415;-74
2022/05/28 11:06:13;;;;;;;4.27;1.37;;;17.90;88.20;;;;;;5003949;28;20422;-73
2022/05/28 11:09:24;;;;;;;4.80;1.43;;;18.00;86.50;;;;;;5003910;28;20431;-79
2022/05/28 11:12:07;;;;;;;4.10;1.70;;;18.50;87.50;;;;;;5004641;28;20415;-75
2022/05/28 11:14:59;;;;;;;3.80;1.63;;;18.70;85.00;;;;;;5004170;28;20403;-74
2022/05/28 11:17:52;;;;;;;3.77;1.83;;;19.00;84.00;;;;;;5004436;28;20963;-75
2022/05/28 11:20:34;;;;;;;4.53;1.70;;;19.30;81.00;;;;;;5000804;28;20427;-74
2022/05/28 11:23:21;;;;;;;2.60;1.40;;;19.60;82.30;;;;;;5004198;28;20401;-74
2022/05/28 11:26:06;;;;;;;7.07;2.00;;;20.00;82.40;;;;;;5003302;28;20438;-80
2022/05/28 11:28:46;;;;;;;3.00;1.50;;;20.00;83.50;;;;;;5004579;28;20839;-79
2022/05/28 11:31:19;;;;;;;3.70;1.80;;;20.00;80.00;;;;;;5003876;28;20409;-77
2022/05/28 11:33:49;;;;;;;2.53;1.33;;;19.40;80.00;;;;;;5003882;28;20410;-76
2022/05/28 11:36:26;;;;;;;2.93;1.30;;;19.00;79.10;;;;;;5003989;28;21478;-73
2022/05/28 11:39:10;;;;;;;3.33;1.47;;;19.30;77.90;;;;;;5003558;28;20466;-77
2022/05/28 11:41:45;;;;;;;2.23;1.30;;;20.60;73.60;;;;;;5003861;28;20407;-73
2022/05/28 11:44:13;;;;;;;3.00;1.27;;;21.10;72.00;;;;;;5003930;28;20403;-74
2022/05/28 11:46:49;;;;;;;4.23;1.33;;;22.00;72.30;;;;;;5004004;28;20409;-73
2022/05/28 11:52:36;;;;;;;2.80;1.20;;;20.30;70.40;;;;;;5004408;28;20409;-75
2022/05/28 11:55:11;;;;;;;2.33;1.10;;;20.10;71.80;;;;;;5004047;28;20414;-74
2022/05/28 11:57:43;;;;;;;1.87;1.17;;;21.20;72.40;;;;;;5006103;28;20453;-74
2022/05/28 12:00:12;;;;;;;3.10;1.37;;;20.80;68.70;;;;;;5007420;28;20827;-73
2022/05/28 12:02:47;;;;;;;1.70;1.17;;;20.90;69.90;;;;;;5007576;28;20566;-78
2022/05/28 12:05:18;;;;;;;5.50;1.40;;;21.80;67.30;;;;;;5007437;28;20417;-75
2022/05/28 12:07:46;;;;;;;2.33;1.20;;;22.70;64.50;;;;;;5007259;28;20415;-74
2022/05/28 12:10:27;;;;;;;4.13;1.20;;;23.40;64.10;;;;;;5006575;28;20406;-74
2022/05/28 12:13:01;;;;;;;4.47;1.87;;;23.80;60.20;;;;;;5007384;28;20403;-74
2022/05/28 12:15:29;;;;;;;5.70;2.07;;;23.80;60.90;;;;;;5005655;28;20515;-74
2022/05/28 12:18:14;;;;;;;2.93;1.67;;;23.90;60.60;;;;;;5007314;28;20971;-73
2022/05/28 12:20:58;;;;;;;2.90;1.40;;;23.10;62.00;;;;;;5007160;28;20904;-74
2022/05/28 12:23:31;;;;;;;3.07;1.60;;;24.00;62.30;;;;;;5007382;28;20822;-74
2022/05/28 12:25:57;;;;;;;2.97;1.63;;;23.40;59.60;;;;;;5006986;28;20502;-73
2022/05/28 12:28:42;;;;;;;2.50;1.17;;;22.90;61.00;;;;;;5007323;28;20513;-77
2022/05/28 12:31:08;;;;;;;5.53;1.60;;;22.30;62.20;;;;;;5006516;28;20230;-75
2022/05/28 12:34:07;;;;;;;3.83;1.60;;;21.00;64.20;;;;;;5007229;28;20915;-75
2022/05/28 12:36:42;;;;;;;3.03;1.50;;;20.30;67.40;;;;;;5005077;28;20439;-74
2022/05/28 12:39:14;;;;;;;3.77;1.50;;;20.00;69.90;;;;;;5006727;28;20467;-73
2022/05/28 12:41:40;;;;;;;2.33;1.37;;;20.00;68.90;;;;;;5006773;28;20791;-73
2022/05/28 12:44:22;;;;;;;3.63;1.60;;;20.50;69.00;;;;;;5006351;28;20406;-74
2022/05/28 12:46:50;;;;;;;3.40;1.40;;;20.50;69.20;;;;;;5023878;22;20510;-78
2022/05/28 12:49:53;;;;;;;3.60;1.57;;;20.90;69.30;;;;;;5011426;28;20930;-76
2022/05/28 12:52:27;;;;;;;5.73;1.43;;;21.20;69.90;;;;;;5010163;28;20402;-75
2022/05/28 12:55:17;;;;;;;4.53;1.60;;;20.70;67.20;;;;;;5008212;28;20509;-77
2022/05/28 12:57:56;;;;;;;6.00;1.50;;;20.30;70.20;;;;;;5009691;28;20485;-77
2022/05/28 13:00:21;;;;;;;6.87;1.73;;;21.00;70.00;;;;;;5009691;28;20426;-78
2022/05/28 13:02:50;;;;;;;3.03;1.50;;;22.50;67.50;;;;;;5009459;28;20612;-76
2022/05/28 13:05:39;;;;;;;2.37;1.30;;;23.70;64.60;;;;;;5008329;28;20222;-77
2022/05/28 13:08:20;;;;;;;3.03;1.27;;;24.60;61.30;;;;;;5008432;28;20803;-75
2022/05/28 13:11:07;;;;;;;4.40;1.80;;;25.60;58.80;;;;;;5008816;28;20407;-76
2022/05/28 13:13:33;;;;;;;3.10;1.47;;;25.00;62.40;;;;;;5008990;28;20423;-75